createdAt,value
2019-01-03T19:54:27.998Z,50.63
2019-01-03T21:05:01.990Z,50.63
2019-01-03T21:06:01.899Z,50.63
2019-01-03T21:07:01.920Z,50.63
2019-01-03T21:08:01.925Z,50.63
2019-01-03T21:09:01.739Z,50.63
2019-01-03T21:10:01.761Z,50.63
2019-01-03T21:11:01.919Z,45.00
2019-01-03T21:12:01.708Z,45.00
2019-01-03T21:13:01.666Z,45.00
2019-01-03T21:14:01.677Z,45.00
2019-01-03T21:15:01.650Z,45.00
2019-01-03T21:16:01.691Z,45.00
2019-01-03T21:17:01.678Z,45.00
2019-01-03T21:18:01.567Z,45.00
2019-01-03T21:19:01.856Z,45.00
2019-01-03T21:20:01.888Z,45.00
2019-01-03T21:21:01.615Z,45.00
2019-01-03T21:22:01.641Z,45.00
2019-01-03T21:23:01.469Z,45.00
2019-01-03T21:24:01.472Z,45.00
2019-01-03T21:25:02.289Z,45.00
2019-01-03T21:26:01.459Z,45.00
2019-01-03T21:28:01.449Z,45.00
2019-01-03T21:29:01.353Z,45.00
2019-01-03T21:30:01.441Z,45.00
2019-01-03T21:31:01.313Z,45.00
2019-01-03T21:32:01.321Z,45.00
2019-01-03T21:33:01.347Z,45.00
2019-01-03T21:34:01.244Z,45.00
2019-01-03T21:35:01.254Z,45.00
2019-01-03T21:36:01.197Z,45.00
2019-01-03T21:37:01.384Z,45.00
2019-01-03T21:38:01.302Z,45.00
2019-01-03T21:39:01.143Z,39.38
2019-01-03T21:40:01.244Z,39.38
2019-01-03T21:41:01.109Z,39.38
2019-01-03T21:42:01.096Z,39.38
2019-01-03T21:43:01.125Z,39.38
2019-01-03T21:44:01.144Z,33.75
2019-01-03T21:45:01.022Z,39.38
2019-01-03T21:46:00.983Z,39.38
2019-01-03T21:47:01.558Z,39.38
2019-01-03T21:48:00.961Z,39.38
2019-01-03T21:49:01.302Z,39.38
2019-01-03T21:50:00.924Z,39.38
2019-01-03T21:51:00.858Z,39.38
2019-01-03T21:52:00.926Z,39.38
2019-01-03T21:53:00.815Z,39.38
2019-01-03T21:54:00.943Z,28.13
2019-01-03T21:55:00.800Z,33.75
2019-01-03T21:56:00.767Z,33.75
2019-01-03T21:57:00.774Z,33.75
2019-01-03T21:58:00.716Z,33.75
2019-01-03T21:59:00.698Z,33.75
2019-01-03T22:00:00.847Z,33.75
2019-01-03T22:01:00.668Z,33.75
2019-01-03T22:02:00.674Z,33.75
2019-01-03T22:03:00.613Z,28.13
2019-01-03T22:04:00.823Z,28.13
2019-01-03T22:05:00.712Z,33.75
2019-01-03T22:06:00.799Z,33.75
2019-01-03T22:07:00.539Z,33.75
2019-01-03T22:08:00.544Z,28.13
2019-01-03T22:09:00.473Z,28.13
2019-01-03T22:10:00.463Z,28.13
2019-01-03T22:11:00.540Z,28.13
2019-01-03T22:12:00.437Z,28.13
2019-01-03T22:13:00.524Z,28.13
2019-01-03T22:14:00.391Z,28.13
2019-01-03T22:15:00.385Z,28.13
2019-01-03T22:16:00.746Z,28.13
2019-01-03T22:17:00.428Z,22.50
2019-01-03T22:18:00.350Z,22.50
2019-01-03T22:19:00.313Z,28.13
2019-01-03T22:20:00.258Z,28.13
2019-01-03T22:21:00.386Z,28.13
2019-01-03T22:22:00.213Z,28.13
2019-01-03T22:23:00.208Z,22.50
2019-01-03T22:24:00.163Z,22.50
2019-01-03T22:25:00.161Z,22.50
2019-01-03T22:26:00.203Z,22.50
2019-01-03T22:27:00.293Z,28.13
2019-01-03T22:28:00.828Z,28.13
2019-01-03T22:29:01.937Z,22.50
2019-01-03T22:30:00.969Z,22.50
2019-01-03T22:31:00.419Z,22.50
2019-01-03T22:32:00.063Z,22.50
2019-01-03T22:33:00.417Z,22.50
2019-01-03T22:33:59.950Z,16.88
2019-01-03T22:35:00.350Z,22.50
2019-01-03T22:36:00.080Z,16.88
2019-01-03T22:37:00.476Z,16.88
2019-01-03T22:38:00.490Z,16.88
2019-01-03T22:38:59.914Z,22.50
2019-01-03T22:39:59.845Z,22.50
2019-01-03T22:40:59.829Z,16.88
2019-01-03T22:42:00.156Z,16.88
2019-01-03T22:43:00.343Z,16.88
2019-01-03T22:43:59.875Z,16.88
2019-01-03T22:44:59.733Z,16.88
2019-01-03T22:45:59.755Z,16.88
2019-01-03T22:46:59.705Z,16.88
2019-01-03T22:48:00.021Z,16.88
2019-01-03T22:48:59.724Z,16.88
2019-01-03T22:49:59.641Z,16.88
2019-01-03T22:50:59.906Z,11.25
2019-01-03T22:52:00.403Z,11.25
2019-01-03T22:52:59.795Z,11.25
2019-01-03T22:53:59.654Z,5.63
2019-01-03T22:54:59.704Z,5.63
2019-01-03T22:55:59.514Z,5.63
2019-01-03T22:56:59.741Z,5.63
2019-01-03T22:57:59.405Z,5.63
2019-01-03T22:58:59.443Z,5.63
2019-01-03T22:59:59.474Z,5.63
2019-01-03T23:00:59.460Z,5.63
2019-01-03T23:01:59.409Z,5.63
2019-01-03T23:02:59.288Z,5.63
2019-01-03T23:03:59.287Z,5.63
2019-01-03T23:04:59.285Z,5.63
2019-01-03T23:05:59.326Z,5.63
2019-01-03T23:06:59.224Z,5.63
2019-01-03T23:07:59.202Z,5.63
2019-01-03T23:08:59.172Z,5.63
2019-01-03T23:09:59.211Z,5.63
2019-01-03T23:10:59.217Z,5.63
2019-01-03T23:11:59.120Z,0.00
2019-01-03T23:12:59.074Z,0.00
2019-01-03T23:13:59.216Z,0.00
2019-01-03T23:14:59.055Z,0.00
2019-01-03T23:15:59.282Z,0.00
2019-01-03T23:16:59.009Z,0.00
2019-01-03T23:17:59.076Z,0.00
2019-01-03T23:18:59.054Z,0.00
2019-01-03T23:19:59.310Z,0.00
2019-01-03T23:21:00.845Z,0.00
2019-01-03T23:21:58.950Z,0.00
2019-01-03T23:22:58.909Z,0.00
2019-01-03T23:24:00.202Z,0.00
2019-01-03T23:24:58.819Z,0.00
2019-01-03T23:25:58.892Z,0.00
2019-01-03T23:26:58.953Z,0.00
2019-01-03T23:27:58.808Z,0.00
2019-01-03T23:28:58.725Z,0.00
2019-01-03T23:29:58.685Z,0.00
2019-01-03T23:30:58.676Z,0.00
2019-01-03T23:31:58.792Z,0.00
2019-01-03T23:32:58.676Z,0.00
2019-01-03T23:33:58.791Z,0.00
2019-01-03T23:34:58.613Z,0.00
2019-01-03T23:35:58.834Z,0.00
2019-01-03T23:36:58.776Z,0.00
2019-01-03T23:37:58.514Z,0.00
2019-01-03T23:38:58.513Z,0.00
2019-01-03T23:39:58.464Z,0.00
2019-01-03T23:40:58.524Z,0.00
2019-01-03T23:41:58.409Z,0.00
2019-01-03T23:42:58.454Z,0.00
2019-01-03T23:43:59.212Z,0.00
2019-01-03T23:44:58.800Z,0.00
2019-01-03T23:47:59.132Z,0.00
2019-01-03T23:51:58.594Z,0.00
2019-01-03T23:52:59.261Z,0.00
2019-01-03T23:53:58.224Z,0.00
2019-01-03T23:54:58.101Z,0.00
2019-01-03T23:55:58.089Z,0.00
2019-01-03T23:56:58.081Z,0.00
2019-01-03T23:57:58.115Z,0.00
2019-01-03T23:58:58.631Z,0.00
2019-01-03T23:59:57.999Z,0.00
